Time;durP1;ratioP1;P1;durP2;ratioP2;P2;SDS_P1;SDS_P2;PMS_P1;PMS_P2;Temp;Humidity;BMP_temperature;BMP_pressure;BME280_temperature;BME280_humidity;BME280_pressure;Samples;Min_cycle;Max_cycle;Signal;HPM_P1;HPM_P2
2022/04/30 00:01:01;;;;;;;5.85;4.07;;;3.50;95.70;;;;;;5034323;28;20375;-77
2022/04/30 00:03:28;;;;;;;6.60;4.95;;;3.50;95.60;;;;;;5032476;28;20104;-79
2022/04/30 00:05:55;;;;;;;6.47;4.95;;;3.50;95.80;;;;;;5033356;28;20045;-78
2022/04/30 00:08:21;;;;;;;5.45;3.80;;;3.50;95.80;;;;;;5034054;28;20071;-79
2022/04/30 00:10:48;;;;;;;7.40;4.82;;;3.50;95.80;;;;;;5034277;28;20025;-78
2022/04/30 00:13:15;;;;;;;5.75;4.32;;;3.40;95.80;;;;;;5035280;28;20045;-79
2022/04/30 00:15:41;;;;;;;5.65;4.28;;;3.40;95.90;;;;;;5034178;28;20036;-79
2022/04/30 00:18:08;;;;;;;9.02;4.22;;;3.50;96.00;;;;;;5034109;28;20018;-78
2022/04/30 00:20:36;;;;;;;5.28;3.65;;;3.50;96.30;;;;;;5033791;28;20032;-79
2022/04/30 00:23:03;;;;;;;6.47;4.18;;;3.50;96.00;;;;;;5031926;28;20509;-80
2022/04/30 00:25:29;;;;;;;7.57;4.63;;;3.60;95.80;;;;;;5034283;28;20045;-79
2022/04/30 00:27:55;;;;;;;8.40;4.47;;;3.60;95.60;;;;;;5033354;28;20018;-79
2022/04/30 00:30:20;;;;;;;8.45;3.72;;;3.60;95.60;;;;;;5033385;28;20030;-80
2022/04/30 00:32:48;;;;;;;5.40;4.15;;;3.60;95.60;;;;;;5033267;28;20029;-79
2022/04/30 00:35:14;;;;;;;6.43;4.22;;;3.60;95.50;;;;;;5033267;28;20438;-78
2022/04/30 00:37:41;;;;;;;5.50;4.20;;;3.60;95.50;;;;;;5032280;28;20044;-79
2022/04/30 00:40:07;;;;;;;5.80;4.07;;;3.60;95.40;;;;;;5033188;28;20033;-79
2022/04/30 00:42:33;;;;;;;9.05;4.88;;;3.60;95.50;;;;;;5032991;28;20025;-79
2022/04/30 00:44:59;;;;;;;6.88;4.22;;;3.70;95.60;;;;;;5031595;28;20048;-79
2022/04/30 00:47:26;;;;;;;4.88;4.38;;;3.80;95.70;;;;;;5032125;28;20123;-78
2022/04/30 00:49:53;;;;;;;5.30;3.92;;;3.80;95.30;;;;;;5035504;28;20115;-79
2022/04/30 00:52:21;;;;;;;8.50;4.03;;;3.80;95.20;;;;;;5033205;28;20124;-79
2022/04/30 00:54:49;;;;;;;;;;;3.80;95.10;;;;;;5033292;28;20022;-79
2022/04/30 00:57:22;;;;;;;5.03;4.05;;;3.80;94.90;;;;;;5032952;28;20285;-79
2022/04/30 01:00:00;;;;;;;7.00;4.90;;;3.70;94.80;;;;;;5032813;28;20107;-79
2022/04/30 01:02:32;;;;;;;5.47;4.22;;;3.70;94.70;;;;;;5032355;28;20018;-80
2022/04/30 01:04:58;;;;;;;5.57;4.20;;;3.70;94.70;;;;;;5032835;28;20060;-80
2022/04/30 01:07:26;;;;;;;4.25;3.70;;;3.70;94.70;;;;;;5031251;28;20025;-80
2022/04/30 01:09:53;;;;;;;5.53;4.20;;;3.80;94.70;;;;;;5032042;28;20052;-80
2022/04/30 01:12:19;;;;;;;;;;;3.70;94.50;;;;;;5032180;28;20075;-79
2022/04/30 01:14:46;;;;;;;6.82;4.22;;;3.70;94.30;;;;;;5031791;28;19933;-80
2022/04/30 01:17:12;;;;;;;5.63;4.28;;;3.70;94.40;;;;;;5033350;28;20021;-79
2022/04/30 01:19:43;;;;;;;3.88;3.47;;;3.70;94.40;;;;;;5031529;28;20474;-79
2022/04/30 01:22:29;;;;;;;6.43;3.78;;;3.60;94.40;;;;;;5032454;28;20572;-78
2022/04/30 01:24:57;;;;;;;4.55;3.88;;;3.60;94.50;;;;;;5030302;28;20459;-80
2022/04/30 01:27:26;;;;;;;;;;;3.60;94.40;;;;;;5032609;28;20029;-79
2022/04/30 01:29:56;;;;;;;4.57;3.92;;;3.60;94.30;;;;;;5032794;28;19927;-78
2022/04/30 01:38:16;;;;;;;3.53;3.22;;;3.60;94.30;;;;;;5032267;28;20033;-78
2022/04/30 01:40:42;;;;;;;6.50;3.30;;;3.50;94.20;;;;;;5031056;28;20038;-77
2022/04/30 01:43:08;;;;;;;5.47;3.47;;;3.50;94.30;;;;;;5032185;28;20080;-79
2022/04/30 01:45:35;;;;;;;6.63;4.75;;;3.50;94.30;;;;;;5032422;28;20044;-79
2022/04/30 01:48:04;;;;;;;5.07;3.70;;;3.50;94.30;;;;;;5034965;28;20029;-80
2022/04/30 01:50:30;;;;;;;5.68;4.07;;;3.60;94.40;;;;;;5034348;28;20029;-78
2022/04/30 01:52:56;;;;;;;5.57;3.83;;;3.60;94.30;;;;;;5035923;28;20029;-77
2022/04/30 01:55:21;;;;;;;5.65;4.15;;;3.60;94.30;;;;;;5033367;28;20382;-77
2022/04/30 01:57:47;;;;;;;5.47;3.65;;;3.60;94.20;;;;;;5031269;28;20032;-78
2022/04/30 02:00:14;;;;;;;4.43;3.70;;;3.70;94.10;;;;;;5030507;28;20033;-77
2022/04/30 02:02:45;;;;;;;7.32;4.20;;;3.70;94.00;;;;;;5030774;28;20024;-78
2022/04/30 02:05:13;;;;;;;7.85;4.43;;;3.70;93.90;;;;;;5030287;28;20021;-78
2022/04/30 02:07:43;;;;;;;9.13;4.07;;;3.60;93.90;;;;;;5030954;28;20403;-79
2022/04/30 02:10:11;;;;;;;6.53;4.15;;;3.60;93.90;;;;;;5031993;28;20064;-78
2022/04/30 02:12:37;;;;;;;;;;;3.60;94.00;;;;;;5031605;28;20026;-80
2022/04/30 02:15:04;;;;;;;4.65;3.45;;;3.60;93.80;;;;;;5035816;28;20453;-79
2022/04/30 02:17:35;;;;;;;4.50;3.97;;;3.50;93.80;;;;;;5034362;28;20029;-80
2022/04/30 02:22:47;;;;;;;7.60;4.63;;;3.50;94.00;;;;;;5034746;28;20463;-80
2022/04/30 02:25:14;;;;;;;4.95;4.30;;;3.50;93.90;;;;;;5035485;28;20041;-79
2022/04/30 02:27:49;;;;;;;6.32;4.00;;;3.50;93.90;;;;;;5035463;28;20021;-80
2022/04/30 02:30:19;;;;;;;4.70;3.70;;;3.50;93.80;;;;;;5034813;28;20037;-79
2022/04/30 02:32:48;;;;;;;4.30;3.80;;;3.50;93.70;;;;;;5035377;28;20033;-79
2022/04/30 02:35:15;;;;;;;4.43;3.40;;;3.40;93.80;;;;;;5035608;28;20033;-79
2022/04/30 02:37:45;;;;;;;4.78;4.20;;;3.40;93.80;;;;;;5035358;28;20056;-79
2022/04/30 02:40:19;;;;;;;5.20;3.97;;;3.40;93.80;;;;;;5035091;28;20056;-78
2022/04/30 02:42:46;;;;;;;5.40;3.83;;;3.40;93.80;;;;;;5035323;28;20427;-79
2022/04/30 02:45:15;;;;;;;6.10;4.45;;;3.40;93.60;;;;;;5035074;28;20086;-78
2022/04/30 02:47:43;;;;;;;5.10;3.63;;;3.30;93.60;;;;;;5034355;28;20040;-78
2022/04/30 02:50:11;;;;;;;4.78;4.28;;;3.30;93.60;;;;;;5035033;28;20030;-78
2022/04/30 02:52:38;;;;;;;4.70;3.97;;;3.30;93.50;;;;;;5033835;28;20025;-79
2022/04/30 02:55:04;;;;;;;6.03;3.15;;;3.30;93.60;;;;;;5030602;28;20132;-79
2022/04/30 02:59:53;;;;;;;4.35;3.45;;;3.30;93.40;;;;;;5015621;28;20037;-80
2022/04/30 03:00:26;;;;;;;3.50;2.72;;;3.20;93.30;;;;;;5015738;28;20033;-78
2022/04/30 03:02:52;;;;;;;3.20;2.53;;;3.10;93.20;;;;;;5019907;28;20031;-79
2022/04/30 03:05:18;;;;;;;4.13;2.72;;;3.10;93.20;;;;;;5034093;28;20029;-80
2022/04/30 03:07:46;;;;;;;5.18;3.00;;;3.10;93.20;;;;;;5034734;28;20018;-81
2022/04/30 03:10:11;;;;;;;3.63;2.67;;;3.00;93.20;;;;;;5034711;28;20018;-78
2022/04/30 03:12:37;;;;;;;3.15;2.85;;;3.10;93.00;;;;;;5033461;28;20041;-78
2022/04/30 03:15:03;;;;;;;3.33;2.22;;;3.00;92.80;;;;;;5034840;28;20021;-78
2022/04/30 03:22:58;;;;;;;5.15;2.63;;;2.90;92.80;;;;;;5034564;28;20171;-79
2022/04/30 03:25:24;;;;;;;2.80;2.60;;;3.00;92.90;;;;;;5032952;28;20223;-79
2022/04/30 03:27:50;;;;;;;7.18;2.92;;;3.00;92.80;;;;;;5035155;28;20041;-81
2022/04/30 03:30:16;;;;;;;4.47;2.90;;;3.00;92.70;;;;;;5034103;28;20525;-79
2022/04/30 03:32:42;;;;;;;4.50;3.10;;;3.00;92.80;;;;;;5035752;28;20030;-78
2022/04/30 03:35:09;;;;;;;5.30;2.80;;;3.10;92.90;;;;;;5032696;28;20541;-79
2022/04/30 03:37:35;;;;;;;3.03;2.40;;;3.20;92.80;;;;;;5034341;28;20014;-79
2022/04/30 03:40:01;;;;;;;5.28;2.65;;;3.30;92.40;;;;;;5032951;28;20033;-79
2022/04/30 03:42:28;;;;;;;5.55;2.90;;;3.30;92.10;;;;;;5033122;28;20042;-78
2022/04/30 03:44:53;;;;;;;3.50;2.80;;;3.30;91.90;;;;;;5034047;28;20079;-81
2022/04/30 03:47:20;;;;;;;5.65;2.88;;;3.40;92.00;;;;;;5034554;28;20025;-78
2022/04/30 03:49:46;;;;;;;6.88;2.55;;;3.60;91.90;;;;;;5034205;28;20021;-79
2022/04/30 03:52:12;;;;;;;5.43;3.03;;;3.70;91.30;;;;;;5035656;28;20029;-78
2022/04/30 03:54:41;;;;;;;4.60;2.55;;;3.80;90.90;;;;;;5033997;28;20272;-78
2022/04/30 03:57:07;;;;;;;3.55;2.97;;;3.70;90.70;;;;;;5032721;28;20025;-80
2022/04/30 03:59:33;;;;;;;3.90;3.08;;;3.70;90.80;;;;;;5033917;28;20028;-77
2022/04/30 04:01:59;;;;;;;3.75;3.13;;;3.70;90.80;;;;;;5035148;28;20029;-78
2022/04/30 04:04:28;;;;;;;3.85;3.40;;;3.70;90.60;;;;;;5035032;28;20032;-78
2022/04/30 04:06:54;;;;;;;3.20;2.72;;;3.80;90.70;;;;;;5034323;28;20098;-78
2022/04/30 04:09:20;;;;;;;2.75;2.38;;;3.90;90.60;;;;;;5032347;28;20029;-79
2022/04/30 04:11:46;;;;;;;2.60;2.40;;;4.10;90.10;;;;;;5033896;28;20039;-80
2022/04/30 04:19:40;;;;;;;3.92;2.80;;;4.70;87.00;;;;;;5033609;28;20183;-79
2022/04/30 04:22:07;;;;;;;3.08;2.40;;;4.80;86.30;;;;;;5032366;28;20021;-79
2022/04/30 04:27:18;;;;;;;3.50;3.20;;;4.50;85.70;;;;;;5033279;28;20450;-79
2022/04/30 04:29:46;;;;;;;2.88;2.60;;;4.60;86.60;;;;;;5033593;28;20033;-80
2022/04/30 04:32:12;;;;;;;3.05;2.70;;;4.70;85.50;;;;;;5032039;28;20449;-79
2022/04/30 04:34:38;;;;;;;6.28;2.85;;;4.70;85.20;;;;;;5032718;28;20029;-78
2022/04/30 04:37:04;;;;;;;5.20;2.60;;;4.70;85.50;;;;;;5031832;28;20171;-79
2022/04/30 04:39:30;;;;;;;4.97;3.17;;;4.70;85.60;;;;;;5033971;28;20495;-79
2022/04/30 04:41:56;;;;;;;7.28;3.65;;;4.70;85.50;;;;;;5033455;28;20120;-80
2022/04/30 04:44:21;;;;;;;2.58;2.33;;;4.70;85.50;;;;;;5033465;28;20025;-78
2022/04/30 04:46:48;;;;;;;2.88;2.08;;;4.80;84.90;;;;;;5032881;28;20029;-79
2022/04/30 04:49:15;;;;;;;2.95;2.35;;;5.00;84.80;;;;;;5032282;28;20029;-81
2022/04/30 04:51:40;;;;;;;2.85;2.22;;;5.40;83.60;;;;;;5031604;28;20061;-78
2022/04/30 04:54:06;;;;;;;1.63;1.52;;;5.60;82.30;;;;;;5032658;28;20126;-79
2022/04/30 04:56:32;;;;;;;3.63;2.17;;;5.60;79.70;;;;;;5032766;28;20018;-80
2022/04/30 04:58:59;;;;;;;3.88;2.55;;;5.40;80.00;;;;;;5032641;28;20072;-79
2022/04/30 05:01:25;;;;;;;3.80;2.13;;;5.80;80.70;;;;;;5032532;28;20489;-80
2022/04/30 05:03:51;;;;;;;3.58;2.00;;;5.90;78.50;;;;;;5032496;28;20026;-80
2022/04/30 05:06:17;;;;;;;3.35;2.38;;;6.00;78.10;;;;;;5030498;28;20108;-80
2022/04/30 05:08:43;;;;;;;4.20;2.25;;;6.40;78.80;;;;;;5012993;28;20114;-79
2022/04/30 05:11:10;;;;;;;3.45;3.15;;;6.70;77.90;;;;;;5012703;28;20104;-80
2022/04/30 05:13:35;;;;;;;3.83;3.30;;;6.70;76.30;;;;;;5012759;28;20068;-78
2022/04/30 05:16:02;;;;;;;2.47;2.00;;;6.80;75.60;;;;;;5044712;28;20026;-80
2022/04/30 05:18:28;;;;;;;2.85;2.40;;;6.80;74.00;;;;;;5012501;28;20018;-80
2022/04/30 05:20:53;;;;;;;4.10;2.55;;;6.80;75.00;;;;;;5013668;28;20037;-81
2022/04/30 05:23:19;;;;;;;4.75;3.08;;;6.80;74.20;;;;;;5024490;28;20018;-80
2022/04/30 05:25:45;;;;;;;5.20;2.70;;;6.80;73.40;;;;;;5032156;28;20041;-82
2022/04/30 05:28:11;;;;;;;3.35;2.60;;;6.60;72.70;;;;;;5032304;28;20040;-80
2022/04/30 05:30:38;;;;;;;2.97;2.65;;;6.30;73.00;;;;;;5034281;28;20033;-81
2022/04/30 05:33:04;;;;;;;7.10;3.03;;;7.10;75.00;;;;;;5032269;28;20164;-84
2022/04/30 05:35:29;;;;;;;5.32;3.15;;;8.50;72.00;;;;;;5030981;28;20462;-80
2022/04/30 05:37:55;;;;;;;5.53;2.80;;;9.20;68.40;;;;;;5031864;28;20029;-81
2022/04/30 05:40:21;;;;;;;3.30;2.47;;;9.50;65.70;;;;;;5033156;28;20026;-81
2022/04/30 05:42:47;;;;;;;3.65;2.53;;;9.60;63.90;;;;;;5032149;28;20450;-81
2022/04/30 05:45:13;;;;;;;2.70;2.10;;;9.20;62.70;;;;;;5033316;28;20072;-79
2022/04/30 05:47:39;;;;;;;4.30;2.70;;;8.60;63.00;;;;;;5037506;28;20025;-78
2022/04/30 05:50:06;;;;;;;2.67;2.28;;;7.80;63.50;;;;;;5040871;28;20025;-79
2022/04/30 05:52:35;;;;;;;7.18;2.45;;;7.20;64.90;;;;;;5040789;28;20052;-79
2022/04/30 05:55:02;;;;;;;2.00;1.77;;;7.10;65.00;;;;;;5039273;28;20064;-78
2022/04/30 05:57:28;;;;;;;3.50;2.00;;;8.60;64.30;;;;;;5040635;28;20048;-80
2022/04/30 05:59:55;;;;;;;2.88;1.80;;;10.80;56.90;;;;;;5039368;28;20690;-79
2022/04/30 06:02:21;;;;;;;8.00;2.17;;;12.50;53.70;;;;;;5038194;28;20475;-81
2022/04/30 06:04:47;;;;;;;2.15;1.40;;;13.40;46.70;;;;;;5037243;28;20033;-81
2022/04/30 06:07:13;;;;;;;1.40;1.20;;;13.90;44.90;;;;;;5038698;28;20055;-80
2022/04/30 06:09:39;;;;;;;4.03;2.10;;;14.40;43.20;;;;;;5038509;28;20040;-82
2022/04/30 06:12:05;;;;;;;3.20;1.70;;;14.10;42.00;;;;;;5038545;28;20049;-82
2022/04/30 06:14:31;;;;;;;3.28;1.75;;;13.60;42.40;;;;;;5039046;28;20092;-80
2022/04/30 06:16:57;;;;;;;3.40;1.38;;;14.20;42.30;;;;;;5038343;28;20449;-80
2022/04/30 06:19:24;;;;;;;5.72;3.00;;;14.00;40.60;;;;;;5035901;28;20033;-79
2022/04/30 06:21:50;;;;;;;3.00;2.35;;;13.10;40.90;;;;;;5037652;28;20034;-79
2022/04/30 06:24:16;;;;;;;2.85;1.73;;;11.80;42.40;;;;;;5038139;28;20028;-80
2022/04/30 06:26:42;;;;;;;3.63;1.95;;;11.20;43.70;;;;;;5042211;28;20483;-79
2022/04/30 06:29:09;;;;;;;3.63;1.77;;;11.20;44.40;;;;;;5039929;28;20025;-82
2022/04/30 06:31:35;;;;;;;2.58;1.33;;;11.30;42.80;;;;;;5038287;28;20025;-79
2022/04/30 06:34:01;;;;;;;4.95;1.77;;;10.80;43.30;;;;;;5037787;28;20022;-81
2022/04/30 06:36:28;;;;;;;2.85;1.58;;;10.00;43.90;;;;;;5038334;28;20026;-80
2022/04/30 06:38:54;;;;;;;6.25;1.70;;;9.20;45.40;;;;;;5038329;28;20033;-80
2022/04/30 06:41:21;;;;;;;3.35;1.77;;;8.60;46.90;;;;;;5038096;28;20564;-81
2022/04/30 06:43:49;;;;;;;3.55;1.75;;;8.10;48.20;;;;;;5037916;28;20124;-80
2022/04/30 06:46:16;;;;;;;4.55;1.88;;;7.90;48.80;;;;;;5038664;28;20186;-80
2022/04/30 06:48:41;;;;;;;2.95;1.83;;;7.60;49.70;;;;;;5036726;28;20029;-82
2022/04/30 06:51:07;;;;;;;3.05;1.67;;;7.30;50.50;;;;;;5037296;28;20025;-81
2022/04/30 06:59:10;;;;;;;5.18;1.45;;;7.90;50.90;;;;;;5015936;28;20565;-80
2022/04/30 07:02:00;;;;;;;1.73;1.35;;;10.10;47.70;;;;;;5033932;28;20021;-81
2022/04/30 07:04:32;;;;;;;2.95;1.70;;;12.40;42.60;;;;;;5034086;28;20075;-84
2022/04/30 07:06:58;;;;;;;3.15;1.42;;;14.80;38.80;;;;;;5045496;28;20029;-83
2022/04/30 07:09:28;;;;;;;1.70;1.33;;;14.30;37.70;;;;;;5033146;28;20040;-79
2022/04/30 07:11:54;;;;;;;2.47;1.52;;;12.90;38.60;;;;;;5032373;28;20032;-80
2022/04/30 07:14:20;;;;;;;1.73;1.20;;;13.60;40.20;;;;;;5034357;28;20020;-79
2022/04/30 07:16:49;;;;;;;2.78;1.80;;;13.60;38.80;;;;;;5034524;28;20455;-81
2022/04/30 07:19:15;;;;;;;3.92;0.98;;;12.60;39.50;;;;;;5035050;28;20030;-82
2022/04/30 07:21:41;;;;;;;4.00;1.58;;;11.90;39.70;;;;;;5033600;28;20116;-79
2022/04/30 07:24:07;;;;;;;1.55;1.20;;;10.90;40.50;;;;;;5033924;28;20029;-79
2022/04/30 07:26:33;;;;;;;2.83;1.42;;;10.00;42.40;;;;;;5034448;28;20047;-80
2022/04/30 07:28:59;;;;;;;3.55;1.17;;;9.60;42.80;;;;;;5030727;28;20506;-77
2022/04/30 07:31:24;;;;;;;1.20;1.10;;;9.00;43.30;;;;;;5015353;28;20030;-79
2022/04/30 07:33:51;;;;;;;4.30;1.20;;;8.50;44.40;;;;;;5014938;28;20468;-79
2022/04/30 07:36:18;;;;;;;5.37;1.77;;;8.00;45.90;;;;;;5014611;28;20018;-79
2022/04/30 07:38:44;;;;;;;2.03;1.38;;;7.60;46.90;;;;;;5014491;28;20029;-81
2022/04/30 07:41:10;;;;;;;2.35;1.70;;;7.30;48.40;;;;;;5062815;28;20048;-79
2022/04/30 07:43:36;;;;;;;2.13;1.42;;;7.20;49.50;;;;;;5034358;28;20033;-79
2022/04/30 07:46:02;;;;;;;3.15;1.70;;;7.20;50.10;;;;;;5032785;28;20486;-78
2022/04/30 07:48:27;;;;;;;2.45;1.00;;;8.70;49.40;;;;;;5035119;28;20104;-80
2022/04/30 07:50:57;;;;;;;5.50;1.50;;;11.30;44.20;;;;;;5035341;28;20033;-76
2022/04/30 07:53:24;;;;;;;5.60;1.95;;;13.10;40.40;;;;;;5039166;28;20028;-78
2022/04/30 07:55:50;;;;;;;6.27;1.60;;;15.20;37.90;;;;;;5034143;28;20475;-80
2022/04/30 07:58:15;;;;;;;1.60;1.15;;;15.70;35.00;;;;;;5032690;28;20033;-80
2022/04/30 08:00:41;;;;;;;2.92;1.58;;;14.50;35.20;;;;;;5033691;28;20021;-80
2022/04/30 08:03:07;;;;;;;3.75;1.92;;;13.20;35.90;;;;;;5032876;28;20083;-79
2022/04/30 08:05:34;;;;;;;1.95;1.35;;;12.10;37.50;;;;;;5032507;28;20962;-80
2022/04/30 08:08:00;;;;;;;3.40;1.27;;;11.20;38.80;;;;;;5049054;28;20022;-78
2022/04/30 08:10:26;;;;;;;4.30;1.50;;;10.40;40.00;;;;;;5032189;28;20470;-81
2022/04/30 08:12:56;;;;;;;2.78;1.20;;;10.90;41.10;;;;;;5034259;28;20029;-86
2022/04/30 08:15:26;;;;;;;2.50;1.27;;;13.10;39.40;;;;;;5032980;28;20051;-83
2022/04/30 08:17:53;;;;;;;5.40;1.55;;;15.60;35.90;;;;;;5032786;28;20033;-80
2022/04/30 08:20:19;;;;;;;4.07;1.85;;;17.50;33.20;;;;;;5035387;28;20400;-84
2022/04/30 08:22:44;;;;;;;2.50;1.00;;;16.80;32.00;;;;;;5034271;28;20048;-79
2022/04/30 08:25:10;;;;;;;3.10;1.20;;;15.60;32.50;;;;;;5033472;28;20033;-79
2022/04/30 08:27:36;;;;;;;2.25;1.50;;;15.00;33.30;;;;;;5031114;28;20124;-78
2022/04/30 08:30:03;;;;;;;2.05;1.10;;;14.40;33.20;;;;;;5033064;28;20021;-78
2022/04/30 08:32:29;;;;;;;7.90;1.70;;;13.70;34.00;;;;;;5033251;28;20108;-78
2022/04/30 08:34:54;;;;;;;2.72;1.63;;;13.10;34.70;;;;;;5033085;28;20116;-77
2022/04/30 08:37:21;;;;;;;2.45;1.38;;;12.70;35.30;;;;;;5033144;28;20030;-79
2022/04/30 08:39:48;;;;;;;3.35;1.40;;;13.10;35.70;;;;;;5032940;28;20021;-79
2022/04/30 08:42:15;;;;;;;;;;;13.80;35.10;;;;;;5033179;28;20053;-79
2022/04/30 08:44:41;;;;;;;5.70;1.35;;;14.60;35.30;;;;;;5031677;28;19949;-79
2022/04/30 08:47:10;;;;;;;3.50;1.40;;;14.90;34.10;;;;;;5030890;28;20061;-77
2022/04/30 08:49:44;;;;;;;2.20;1.02;;;15.30;33.10;;;;;;5032697;28;20498;-78
2022/04/30 08:52:12;;;;;;;2.67;1.27;;;15.20;33.00;;;;;;5032874;28;20025;-78
2022/04/30 08:54:38;;;;;;;4.00;1.40;;;15.10;32.70;;;;;;5031760;28;20128;-77
2022/04/30 08:57:04;;;;;;;2.15;1.00;;;15.80;33.10;;;;;;5033581;28;20112;-78
2022/04/30 08:59:30;;;;;;;3.10;1.35;;;15.80;31.70;;;;;;5032649;28;20075;-77
2022/04/30 09:01:58;;;;;;;3.47;1.25;;;16.60;31.70;;;;;;5031898;28;20029;-78
2022/04/30 09:04:25;;;;;;;3.92;1.50;;;17.50;30.70;;;;;;5032628;28;20029;-78
2022/04/30 09:06:53;;;;;;;2.92;2.33;;;17.20;30.70;;;;;;5032624;28;20037;-78
2022/04/30 09:09:28;;;;;;;4.15;1.73;;;18.60;30.40;;;;;;5030905;28;20538;-77
2022/04/30 09:11:57;;;;;;;4.28;1.10;;;19.00;29.30;;;;;;5030228;28;20034;-78
2022/04/30 09:14:29;;;;;;;4.85;1.50;;;20.10;29.00;;;;;;5031090;28;20486;-77
2022/04/30 09:17:11;;;;;;;2.50;1.20;;;21.40;28.00;;;;;;5032184;28;20040;-78
2022/04/30 09:19:50;;;;;;;3.25;1.13;;;20.90;27.70;;;;;;5032406;28;20024;-77
2022/04/30 09:22:17;;;;;;;4.65;1.70;;;18.90;28.00;;;;;;5032218;28;20022;-77
2022/04/30 09:24:49;;;;;;;3.45;1.48;;;17.10;29.50;;;;;;5030874;28;20056;-78
2022/04/30 09:27:18;;;;;;;3.20;1.00;;;16.30;30.30;;;;;;5030948;28;20541;-78
2022/04/30 09:29:45;;;;;;;3.22;1.48;;;15.70;30.40;;;;;;5031114;28;20033;-76
2022/04/30 09:32:20;;;;;;;2.85;1.33;;;14.50;31.70;;;;;;5032156;28;20101;-78
2022/04/30 09:37:42;;;;;;;6.05;1.45;;;12.80;34.00;;;;;;5032288;28;20029;-78
2022/04/30 09:40:32;;;;;;;2.88;1.55;;;12.10;35.30;;;;;;5032267;28;20068;-78
2022/04/30 09:43:00;;;;;;;5.95;1.83;;;11.40;35.90;;;;;;5031803;28;20498;-77
2022/04/30 09:45:31;;;;;;;3.33;1.65;;;11.40;37.00;;;;;;5031917;28;20037;-77
2022/04/30 09:53:55;;;;;;;3.47;1.25;;;11.90;37.60;;;;;;5031179;28;20088;-76
2022/04/30 09:56:39;;;;;;;2.78;1.52;;;12.10;35.20;;;;;;5031685;28;20041;-78
2022/04/30 09:59:13;;;;;;;3.28;1.38;;;11.30;36.10;;;;;;5031635;28;20025;-76
2022/04/30 10:01:40;;;;;;;4.43;1.48;;;10.40;37.20;;;;;;5030982;28;20751;-76
2022/04/30 10:04:09;;;;;;;1.63;1.23;;;9.90;38.60;;;;;;5026087;28;20083;-77
2022/04/30 10:06:36;;;;;;;2.70;1.60;;;9.50;40.00;;;;;;5026255;28;20041;-76
2022/04/30 10:09:07;;;;;;;3.55;1.55;;;9.40;40.90;;;;;;5018227;28;20040;-78
2022/04/30 10:11:42;;;;;;;3.50;1.58;;;10.00;40.50;;;;;;5022892;28;20033;-81
2022/04/30 10:14:15;;;;;;;2.60;1.70;;;10.50;39.40;;;;;;5022634;28;20244;-80
2022/04/30 10:16:53;;;;;;;2.30;1.48;;;11.40;39.60;;;;;;5033024;28;20029;-84
2022/04/30 10:19:21;;;;;;;2.90;1.33;;;12.60;37.80;;;;;;5034535;28;20022;-83
2022/04/30 10:22:11;;;;;;;3.45;1.60;;;15.00;36.30;;;;;;5037207;28;20033;-80
2022/04/30 10:24:47;;;;;;;4.63;1.48;;;16.10;32.80;;;;;;5036928;28;20075;-79
2022/04/30 10:27:15;;;;;;;2.78;1.38;;;15.10;33.00;;;;;;5033431;28;20136;-80
2022/04/30 10:29:57;;;;;;;3.08;1.25;;;14.20;33.20;;;;;;5031903;28;20496;-80
2022/04/30 10:32:36;;;;;;;3.28;1.60;;;13.30;34.10;;;;;;5031782;28;20018;-79
2022/04/30 10:35:04;;;;;;;4.90;1.60;;;12.60;34.60;;;;;;5032547;28;20128;-79
2022/04/30 10:37:34;;;;;;;1.92;1.40;;;11.80;35.00;;;;;;5033938;28;20034;-79
2022/04/30 10:40:05;;;;;;;2.83;1.40;;;11.20;36.30;;;;;;5034877;28;20148;-79
2022/04/30 10:42:43;;;;;;;4.47;1.70;;;10.60;37.50;;;;;;5035939;28;20054;-78
2022/04/30 10:45:15;;;;;;;5.20;1.58;;;10.00;39.60;;;;;;5031372;28;20059;-79
2022/04/30 10:47:52;;;;;;;2.80;1.40;;;9.60;39.90;;;;;;5034293;28;20155;-77
2022/04/30 10:50:18;;;;;;;;;;;9.50;40.20;;;;;;5034712;28;20025;-78
2022/04/30 10:52:48;;;;;;;2.58;2.15;;;9.40;39.90;;;;;;5034221;28;19913;-78
2022/04/30 10:55:15;;;;;;;3.17;1.63;;;9.30;40.80;;;;;;5034098;28;20022;-80
2022/04/30 10:58:00;;;;;;;3.35;1.67;;;9.20;40.60;;;;;;5033612;28;20482;-80
2022/04/30 11:00:26;;;;;;;3.20;1.70;;;9.10;40.50;;;;;;5015602;28;20061;-79
2022/04/30 11:02:52;;;;;;;3.70;1.50;;;9.00;41.10;;;;;;5015101;28;20384;-77
2022/04/30 11:05:22;;;;;;;3.45;1.55;;;9.10;41.10;;;;;;5015245;28;20034;-79
2022/04/30 11:07:48;;;;;;;4.13;1.73;;;9.10;41.20;;;;;;5015109;28;20038;-79
2022/04/30 11:10:15;;;;;;;2.92;2.15;;;9.00;41.40;;;;;;5014807;28;20392;-78
2022/04/30 11:12:41;;;;;;;3.47;1.90;;;9.00;41.20;;;;;;5027696;28;20025;-77
2022/04/30 11:15:08;;;;;;;5.93;2.25;;;9.00;41.50;;;;;;5034789;28;20029;-77
2022/04/30 11:17:44;;;;;;;7.28;2.08;;;9.00;41.90;;;;;;5033781;28;20558;-78
2022/04/30 11:20:11;;;;;;;3.03;1.52;;;9.10;41.80;;;;;;5033541;28;20413;-78
2022/04/30 11:22:37;;;;;;;4.38;1.83;;;9.00;41.90;;;;;;5034512;28;20022;-76
2022/04/30 11:25:03;;;;;;;2.17;1.60;;;9.00;41.70;;;;;;5034501;28;20076;-78
2022/04/30 11:27:31;;;;;;;2.25;1.50;;;8.90;41.90;;;;;;5033149;28;20143;-78
2022/04/30 11:29:57;;;;;;;2.53;1.77;;;9.00;41.80;;;;;;5034374;28;20029;-80
2022/04/30 11:32:29;;;;;;;5.00;1.95;;;9.30;41.90;;;;;;5034539;28;20021;-79
2022/04/30 11:35:00;;;;;;;5.95;1.50;;;9.60;41.20;;;;;;5037663;28;20053;-78
2022/04/30 11:37:26;;;;;;;2.35;1.77;;;9.90;40.70;;;;;;5034101;28;20030;-78
2022/04/30 11:39:53;;;;;;;2.55;1.92;;;10.10;40.60;;;;;;5028197;28;20089;-79
2022/04/30 11:42:25;;;;;;;4.78;2.13;;;10.40;40.30;;;;;;5035104;28;20107;-80
2022/04/30 11:44:53;;;;;;;5.93;1.80;;;10.70;40.00;;;;;;5038338;28;20033;-80
2022/04/30 11:47:20;;;;;;;4.35;1.85;;;10.90;39.40;;;;;;5034934;28;20060;-77
2022/04/30 11:49:46;;;;;;;8.82;2.25;;;10.80;38.60;;;;;;5034064;28;20079;-80
2022/04/30 11:52:14;;;;;;;5.95;1.88;;;10.80;38.80;;;;;;5033928;28;20487;-80
2022/04/30 11:54:41;;;;;;;5.10;2.42;;;10.70;38.80;;;;;;5032213;28;20068;-80
2022/04/30 11:57:08;;;;;;;5.00;1.87;;;10.60;38.90;;;;;;5031654;28;20036;-80
2022/04/30 11:59:39;;;;;;;3.00;1.45;;;10.50;39.30;;;;;;5035149;28;20271;-82
2022/04/30 12:02:10;;;;;;;6.10;1.92;;;10.40;39.00;;;;;;5034757;28;20083;-80
2022/04/30 12:04:41;;;;;;;3.55;1.85;;;10.40;39.20;;;;;;5037595;28;20048;-86
2022/04/30 12:07:08;;;;;;;7.60;1.90;;;10.40;39.40;;;;;;5032619;28;20029;-84
2022/04/30 12:09:37;;;;;;;5.35;2.33;;;10.40;39.60;;;;;;5032933;28;20026;-83
2022/04/30 12:12:16;;;;;;;3.28;1.65;;;10.30;39.60;;;;;;5035474;28;20030;-81
2022/04/30 12:14:57;;;;;;;6.80;2.10;;;10.50;39.60;;;;;;5032306;28;20021;-83
2022/04/30 12:17:31;;;;;;;8.20;2.00;;;10.80;38.90;;;;;;5038941;28;20049;-82
2022/04/30 12:26:05;;;;;;;6.18;2.33;;;11.00;38.80;;;;;;5019734;28;20071;-80
2022/04/30 12:28:50;;;;;;;2.13;1.47;;;10.70;39.90;;;;;;5033659;28;20067;-83
2022/04/30 12:31:16;;;;;;;2.53;1.60;;;10.30;38.70;;;;;;5032441;28;20036;-82
2022/04/30 12:33:48;;;;;;;4.03;1.13;;;9.80;38.50;;;;;;5034007;28;20018;-79
2022/04/30 12:36:14;;;;;;;2.22;1.20;;;9.30;39.50;;;;;;5035545;28;20025;-80
2022/04/30 12:38:40;;;;;;;6.00;1.77;;;9.00;39.60;;;;;;5033694;28;20503;-81
2022/04/30 12:41:06;;;;;;;3.33;1.90;;;8.80;40.50;;;;;;5031607;28;20511;-81
2022/04/30 12:43:36;;;;;;;2.90;2.00;;;8.70;41.60;;;;;;5031874;28;20071;-80
2022/04/30 12:46:04;;;;;;;6.60;2.03;;;8.80;41.50;;;;;;5033052;28;20029;-83
2022/04/30 12:48:33;;;;;;;7.97;2.80;;;8.80;42.10;;;;;;5032243;28;20067;-81
2022/04/30 12:50:59;;;;;;;1.77;1.38;;;9.00;42.80;;;;;;5032745;28;20029;-83
2022/04/30 12:53:25;;;;;;;4.75;1.55;;;9.20;42.10;;;;;;5031379;28;20501;-82
2022/04/30 12:55:54;;;;;;;4.20;2.40;;;9.40;41.60;;;;;;5032544;28;20110;-81
2022/04/30 12:58:20;;;;;;;5.88;2.03;;;9.60;41.90;;;;;;5031740;28;20056;-82
2022/04/30 13:00:46;;;;;;;3.58;1.60;;;9.70;40.80;;;;;;5032680;28;20029;-80
2022/04/30 13:03:11;;;;;;;4.25;1.80;;;9.60;40.60;;;;;;5032646;28;20104;-80
2022/04/30 13:05:37;;;;;;;3.97;1.73;;;9.70;41.20;;;;;;5032637;28;20045;-79
2022/04/30 13:08:03;;;;;;;2.22;1.65;;;9.70;40.40;;;;;;5032810;28;20364;-81
2022/04/30 13:13:32;;;;;;;4.85;1.63;;;9.70;40.10;;;;;;5031820;28;20136;-81
2022/04/30 13:15:58;;;;;;;1.55;0.93;;;9.50;39.80;;;;;;5032920;28;20030;-82
2022/04/30 13:18:24;;;;;;;3.95;1.50;;;9.40;39.80;;;;;;5033707;28;20101;-82
2022/04/30 13:20:50;;;;;;;3.33;1.65;;;9.30;39.80;;;;;;5032734;28;20068;-81
2022/04/30 13:23:16;;;;;;;2.53;1.58;;;9.30;40.30;;;;;;5031021;28;20065;-80
2022/04/30 13:25:41;;;;;;;4.70;1.80;;;9.30;40.30;;;;;;5032138;28;20067;-80
2022/04/30 13:28:08;;;;;;;4.20;1.73;;;9.20;40.50;;;;;;5032600;28;20029;-83
2022/04/30 13:30:34;;;;;;;3.73;1.90;;;9.10;40.70;;;;;;5032396;28;20483;-81
2022/04/30 13:33:00;;;;;;;6.82;2.28;;;9.20;40.90;;;;;;5032226;28;20035;-83
2022/04/30 13:35:26;;;;;;;2.33;1.67;;;9.20;41.10;;;;;;5030893;28;20021;-81
2022/04/30 13:37:54;;;;;;;6.13;2.75;;;9.20;41.40;;;;;;5030677;28;20136;-81
2022/04/30 13:40:20;;;;;;;5.65;2.65;;;9.10;41.80;;;;;;5031906;28;20128;-81
2022/04/30 13:42:46;;;;;;;3.47;2.20;;;9.00;41.90;;;;;;5031910;28;20065;-79
2022/04/30 13:45:13;;;;;;;6.32;1.95;;;9.10;42.50;;;;;;5031918;28;20407;-79